Time;durP1;ratioP1;P1;durP2;ratioP2;P2;SDS_P1;SDS_P2;PMS_P1;PMS_P2;Temp;Humidity;BMP_temperature;BMP_pressure;BME280_temperature;BME280_humidity;BME280_pressure;Samples;Min_cycle;Max_cycle;Signal;HPM_P1;HPM_P2
2022/07/12 00:02:08;;;;;;;10.40;8.25;;;;;;;;;;4993866;28;20046;-78
2022/07/12 00:04:34;;;;;;;12.70;8.60;;;;;;;;;;4990858;28;20096;-78
2022/07/12 00:07:00;;;;;;;10.27;8.48;;;;;;;;;;4996379;28;20129;-78
2022/07/12 00:09:27;;;;;;;11.50;9.00;;;;;;;;;;4995284;28;20369;-77
2022/07/12 00:11:53;;;;;;;9.43;7.80;;;;;;;;;;4992704;28;20082;-78
2022/07/12 00:14:19;;;;;;;10.85;8.38;;;;;;;;;;4996164;28;20166;-78
2022/07/12 00:16:45;;;;;;;10.00;8.10;;;;;;;;;;4994818;28;20446;-78
2022/07/12 00:19:11;;;;;;;10.38;8.18;;;;;;;;;;4995555;28;20446;-77
2022/07/12 00:21:37;;;;;;;10.40;8.43;;;;;;;;;;4994878;28;20046;-78
2022/07/12 00:24:03;;;;;;;11.80;8.70;;;;;;;;;;4994736;28;20100;-77
2022/07/12 00:26:29;;;;;;;9.95;8.45;;;;;;;;;;4993936;28;20085;-77
2022/07/12 00:28:56;;;;;;;11.18;8.20;;;;;;;;;;4995756;28;20046;-78
2022/07/12 00:31:22;;;;;;;11.95;8.85;;;;;;;;;;4994757;28;20073;-78
2022/07/12 00:33:48;;;;;;;10.75;8.18;;;;;;;;;;4993869;28;20121;-77
2022/07/12 00:36:14;;;;;;;12.52;7.95;;;;;;;;;;4993746;28;20050;-78
2022/07/12 00:38:40;;;;;;;10.68;7.82;;;;;;;;;;4994915;28;20124;-77
2022/07/12 00:41:06;;;;;;;10.90;7.93;;;;;;;;;;4995113;28;20462;-78
2022/07/12 00:43:32;;;;;;;11.70;7.78;;;;;;;;;;4993969;28;20073;-78
2022/07/12 00:45:58;;;;;;;12.30;8.50;;;;;;;;;;5017045;23;20053;-73
2022/07/12 00:48:25;;;;;;;9.13;7.80;;;;;;;;;;5016551;28;20046;-74
2022/07/12 00:50:51;;;;;;;10.32;8.10;;;;;;;;;;4997447;28;20046;-77
2022/07/12 00:53:23;;;;;;;8.63;7.13;;;;;;;;;;5015215;28;20172;-77
2022/07/12 00:55:49;;;;;;;7.82;6.70;;;;;;;;;;5016606;28;20124;-76
2022/07/12 00:58:15;;;;;;;8.98;7.20;;;;;;;;;;5016348;28;20065;-74
2022/07/12 01:00:41;;;;;;;12.30;8.13;;;;;;;;;;5014532;28;20050;-74
2022/07/12 01:03:07;;;;;;;31.00;9.07;;;;;;;;;;5015160;28;20041;-74
2022/07/12 01:05:33;;;;;;;11.00;7.97;;;;;;;;;;5015510;28;20045;-74
2022/07/12 01:07:59;;;;;;;13.15;8.73;;;;;;;;;;5016312;28;20041;-74
2022/07/12 01:10:25;;;;;;;12.10;8.23;;;;;;;;;;4997732;28;20500;-74
2022/07/12 01:12:52;;;;;;;11.98;8.50;;;;;;;;;;4997179;28;20516;-74
2022/07/12 01:15:18;;;;;;;13.40;8.35;;;;;;;;;;5015595;28;20128;-74
2022/07/12 01:17:45;;;;;;;12.63;9.02;;;;;;;;;;5015805;28;20038;-75
2022/07/12 01:20:13;;;;;;;10.35;8.00;;;;;;;;;;5014516;28;20099;-75
2022/07/12 01:22:40;;;;;;;11.23;8.40;;;;;;;;;;5012713;28;20112;-74
2022/07/12 01:25:07;;;;;;;62.22;10.05;;;;;;;;;;5012981;28;20050;-73
2022/07/12 01:27:33;;;;;;;40.85;8.90;;;;;;;;;;5012762;28;20478;-74
2022/07/12 01:30:01;;;;;;;14.85;8.23;;;;;;;;;;5015603;28;20121;-74
2022/07/12 01:32:29;;;;;;;28.02;8.98;;;;;;;;;;5014418;28;20057;-74
2022/07/12 01:35:02;;;;;;;19.63;8.73;;;;;;;;;;5013997;28;20052;-74
2022/07/12 01:37:33;;;;;;;116.50;11.90;;;;;;;;;;4997821;28;20436;-74
2022/07/12 01:39:59;;;;;;;69.97;10.68;;;;;;;;;;5012744;28;20097;-74
2022/07/12 01:42:27;;;;;;;16.02;8.38;;;;;;;;;;5014417;28;20042;-74
2022/07/12 01:44:53;;;;;;;17.75;9.20;;;;;;;;;;5015288;28;20081;-74
2022/07/12 01:47:20;;;;;;;23.83;9.82;;;;;;;;;;5014405;28;20061;-74
2022/07/12 01:49:46;;;;;;;32.55;9.90;;;;;;;;;;4997163;28;20050;-74
2022/07/12 01:52:13;;;;;;;30.90;10.05;;;;;;;;;;5013738;28;20042;-74
2022/07/12 01:54:40;;;;;;;78.03;11.68;;;;;;;;;;5015233;28;20509;-74
2022/07/12 01:57:06;;;;;;;36.70;10.38;;;;;;;;;;4994697;28;20046;-73
2022/07/12 01:59:33;;;;;;;38.30;10.18;;;;;;;;;;5014659;28;20046;-75
2022/07/12 02:02:00;;;;;;;65.55;11.63;;;;;;;;;;5012273;28;20046;-74
2022/07/12 02:04:26;;;;;;;20.27;9.40;;;;;;;;;;5012092;28;20121;-74
2022/07/12 02:06:52;;;;;;;26.58;9.90;;;;;;;;;;5014411;28;20046;-75
2022/07/12 02:09:18;;;;;;;18.90;10.27;;;;;;;;;;5014437;28;20053;-74
2022/07/12 02:11:46;;;;;;;37.85;10.75;;;;;;;;;;5009044;28;20046;-74
2022/07/12 02:14:13;;;;;;;24.50;10.50;;;;;;;;;;4978365;28;20105;-75
2022/07/12 02:16:42;;;;;;;28.80;11.05;;;;;;;;;;5011503;28;20104;-74
2022/07/12 02:19:09;;;;;;;20.48;10.70;;;;;;;;;;5014372;28;20058;-74
2022/07/12 02:21:35;;;;;;;23.15;11.32;;;;;;;;;;5014098;28;20049;-74
2022/07/12 02:24:01;;;;;;;33.42;10.70;;;;;;;;;;5012807;28;20064;-75
2022/07/12 02:26:27;;;;;;;34.83;11.63;;;;;;;;;;5010735;28;20038;-74
2022/07/12 02:28:54;;;;;;;110.28;14.75;;;;;;;;;;4996573;28;20137;-74
2022/07/12 02:31:20;;;;;;;45.17;13.35;;;;;;;;;;5013425;28;20062;-74
2022/07/12 02:33:48;;;;;;;22.67;11.60;;;;;;;;;;5012180;28;20053;-74
2022/07/12 02:36:14;;;;;;;39.85;13.02;;;;;;;;;;5012333;28;20515;-74
2022/07/12 02:38:40;;;;;;;49.28;14.10;;;;;;;;;;5014407;28;20570;-74
2022/07/12 02:41:07;;;;;;;50.35;14.95;;;;;;;;;;4994765;28;20134;-73
2022/07/12 02:43:34;;;;;;;30.45;12.88;;;;;;;;;;5013168;28;20383;-74
2022/07/12 02:46:07;;;;;;;56.35;12.23;;;;;;;;;;5013840;28;20049;-74
2022/07/12 02:48:34;;;;;;;35.95;12.15;;;;;;;;;;5013684;28;20084;-74
2022/07/12 02:51:01;;;;;;;46.60;12.85;;;;;;;;;;5013018;28;20073;-74
2022/07/12 02:53:27;;;;;;;20.70;11.05;;;;;;;;;;5013386;28;20038;-74
2022/07/12 02:55:53;;;;;;;80.57;13.73;;;;;;;;;;5002951;28;20042;-74
2022/07/12 02:58:19;;;;;;;60.90;13.00;;;;;;;;;;4994962;28;20050;-75
2022/07/12 03:00:45;;;;;;;17.92;11.88;;;;;;;;;;5006170;28;20508;-75
2022/07/12 03:03:12;;;;;;;30.77;12.63;;;;;;;;;;5014570;28;20046;-74
2022/07/12 03:05:38;;;;;;;28.35;13.23;;;;;;;;;;4995180;28;20057;-74
2022/07/12 03:08:04;;;;;;;76.15;14.80;;;;;;;;;;5013598;28;20117;-74
2022/07/12 03:10:30;;;;;;;45.65;13.57;;;;;;;;;;4993992;28;20042;-74
2022/07/12 03:12:56;;;;;;;52.10;13.93;;;;;;;;;;5012302;28;20049;-74
2022/07/12 03:15:22;;;;;;;31.08;13.70;;;;;;;;;;5013367;28;20401;-74
2022/07/12 03:17:48;;;;;;;29.95;12.32;;;;;;;;;;4995801;28;20050;-74
2022/07/12 03:20:14;;;;;;;49.50;14.65;;;;;;;;;;4995291;28;20413;-74
2022/07/12 03:22:41;;;;;;;32.30;12.55;;;;;;;;;;4979118;28;20495;-75
2022/07/12 03:25:07;;;;;;;21.23;12.10;;;;;;;;;;5012951;28;20033;-74
2022/07/12 03:27:34;;;;;;;33.00;12.52;;;;;;;;;;4996188;28;20046;-74
2022/07/12 03:30:00;;;;;;;52.53;13.02;;;;;;;;;;5012327;28;20037;-75
2022/07/12 03:32:26;;;;;;;19.08;11.25;;;;;;;;;;5012388;28;20049;-74
2022/07/12 03:34:52;;;;;;;32.03;11.73;;;;;;;;;;5010469;28;20037;-74
2022/07/12 03:37:18;;;;;;;23.35;11.40;;;;;;;;;;4988084;28;20076;-74
2022/07/12 03:39:44;;;;;;;20.40;10.95;;;;;;;;;;5013818;28;20470;-74
2022/07/12 03:42:13;;;;;;;15.02;9.93;;;;;;;;;;5011238;28;20077;-74
2022/07/12 03:44:39;;;;;;;28.33;11.40;;;;;;;;;;5013569;28;20045;-74
2022/07/12 03:47:05;;;;;;;15.27;10.50;;;;;;;;;;5011999;28;20057;-74
2022/07/12 03:49:32;;;;;;;25.27;11.73;;;;;;;;;;5013517;28;20046;-74
2022/07/12 03:51:58;;;;;;;25.80;12.48;;;;;;;;;;5015645;28;20045;-74
2022/07/12 03:54:24;;;;;;;20.85;12.02;;;;;;;;;;5016211;28;20519;-74
2022/07/12 03:59:35;;;;;;;13.38;9.25;;;;;;;;;;4997823;28;20043;-74
2022/07/12 04:02:04;;;;;;;16.63;9.35;;;;;;;;;;5005151;28;20042;-74
2022/07/12 04:04:30;;;;;;;15.15;9.50;;;;;;;;;;4998576;28;20050;-75
2022/07/12 04:06:56;;;;;;;13.93;9.38;;;;;;;;;;4996268;28;20053;-74
2022/07/12 04:09:22;;;;;;;14.77;9.57;;;;;;;;;;5016539;28;20050;-75
2022/07/12 04:11:48;;;;;;;20.15;10.57;;;;;;;;;;5016137;28;20057;-74
2022/07/12 04:14:15;;;;;;;24.17;12.60;;;;;;;;;;5017060;28;20050;-75
2022/07/12 04:16:41;;;;;;;21.48;12.65;;;;;;;;;;5015661;28;20041;-74
2022/07/12 04:19:09;;;;;;;28.38;10.88;;;;;;;;;;5010405;28;20042;-74
2022/07/12 04:21:35;;;;;;;23.05;9.43;;;;;;;;;;4997428;28;20448;-74
2022/07/12 04:24:01;;;;;;;15.63;7.75;;;;;;;;;;5003999;28;20049;-75
2022/07/12 04:26:27;;;;;;;44.03;9.05;;;;;;;;;;5014515;28;20141;-75
2022/07/12 04:28:53;;;;;;;14.05;7.95;;;;;;;;;;5016343;28;20096;-75
2022/07/12 04:31:19;;;;;;;47.28;8.02;;;;;;;;;;5015676;28;20382;-74
2022/07/12 04:33:45;;;;;;;42.45;8.25;;;;;;;;;;5016932;28;20045;-75
2022/07/12 04:36:11;;;;;;;18.60;6.90;;;;;;;;;;4996890;28;20046;-74
2022/07/12 04:38:37;;;;;;;50.95;8.57;;;;;;;;;;4982960;28;20134;-74
2022/07/12 04:41:03;;;;;;;63.63;8.98;;;;;;;;;;4998567;28;20128;-74
2022/07/12 04:43:29;;;;;;;32.33;7.68;;;;;;;;;;5016231;28;20125;-74
2022/07/12 04:45:55;;;;;;;12.77;6.55;;;;;;;;;;5015072;28;20095;-74
2022/07/12 04:48:21;;;;;;;21.38;7.88;;;;;;;;;;5016773;28;20046;-74
2022/07/12 04:50:47;;;;;;;12.52;8.10;;;;;;;;;;5014620;28;20042;-74
2022/07/12 04:53:13;;;;;;;15.70;9.18;;;;;;;;;;5016479;28;20053;-75
2022/07/12 04:55:39;;;;;;;25.38;9.02;;;;;;;;;;5014593;28;20045;-74
2022/07/12 04:58:05;;;;;;;17.75;8.77;;;;;;;;;;5016294;28;20057;-74
2022/07/12 05:00:32;;;;;;;26.83;9.00;;;;;;;;;;5014893;28;20046;-74
2022/07/12 05:02:57;;;;;;;27.85;8.65;;;;;;;;;;5013164;28;20042;-75
2022/07/12 05:05:24;;;;;;;18.75;7.78;;;;;;;;;;5011721;28;20042;-73
2022/07/12 05:07:50;;;;;;;12.32;7.68;;;;;;;;;;5016693;28;20042;-73
2022/07/12 05:10:16;;;;;;;23.10;8.23;;;;;;;;;;5000022;28;20053;-76
2022/07/12 05:12:42;;;;;;;11.63;7.13;;;;;;;;;;5012531;28;20046;-74
2022/07/12 05:15:08;;;;;;;13.77;7.75;;;;;;;;;;4998150;28;20053;-74
2022/07/12 05:17:34;;;;;;;13.65;7.68;;;;;;;;;;5015459;28;20046;-74
2022/07/12 05:20:00;;;;;;;8.45;6.63;;;;;;;;;;5015940;28;20057;-73
2022/07/12 05:22:26;;;;;;;11.43;8.20;;;;;;;;;;5015374;28;20092;-74
2022/07/12 05:24:52;;;;;;;8.82;7.10;;;;;;;;;;4996404;28;20046;-74
2022/07/12 05:27:18;;;;;;;10.65;7.82;;;;;;;;;;5015741;28;20551;-74
2022/07/12 05:29:44;;;;;;;8.38;6.75;;;;;;;;;;5015556;28;20129;-73
2022/07/12 05:32:10;;;;;;;9.05;7.68;;;;;;;;;;5013994;28;20107;-74
2022/07/12 05:34:37;;;;;;;9.30;7.30;;;;;;;;;;5011344;28;20041;-74
2022/07/12 05:37:04;;;;;;;10.13;7.85;;;;;;;;;;5015813;28;20054;-74
2022/07/12 05:39:33;;;;;;;10.95;8.57;;;;;;;;;;5016024;28;20046;-74
2022/07/12 05:41:59;;;;;;;10.13;8.02;;;;;;;;;;5016593;28;20052;-73
2022/07/12 05:44:25;;;;;;;11.27;8.88;;;;;;;;;;5014664;28;20045;-75
2022/07/12 05:46:51;;;;;;;13.13;9.05;;;;;;;;;;5016357;28;20116;-75
2022/07/12 05:49:17;;;;;;;10.95;8.63;;;;;;;;;;5015526;28;20502;-74
2022/07/12 05:54:28;;;;;;;8.00;7.20;;;;;;;;;;5009305;28;20077;-74
2022/07/12 05:56:54;;;;;;;9.52;7.38;;;;;;;;;;5015558;28;20413;-75
2022/07/12 05:59:20;;;;;;;8.35;7.10;;;;;;;;;;4996573;28;20077;-75
2022/07/12 06:01:46;;;;;;;10.48;6.88;;;;;;;;;;5006067;28;20042;-74
2022/07/12 06:04:12;;;;;;;10.38;7.38;;;;;;;;;;4997685;28;20133;-75
2022/07/12 06:06:38;;;;;;;10.32;7.68;;;;;;;;;;5014489;28;20081;-74
2022/07/12 06:09:04;;;;;;;8.20;6.75;;;;;;;;;;5015697;28;20109;-75
2022/07/12 06:11:32;;;;;;;10.55;7.43;;;;;;;;;;5006143;28;20082;-74
2022/07/12 06:13:58;;;;;;;8.77;6.85;;;;;;;;;;5010741;28;20050;-74
2022/07/12 06:16:24;;;;;;;8.23;6.60;;;;;;;;;;4992588;28;20109;-74
2022/07/12 06:18:50;;;;;;;6.90;5.45;;;;;;;;;;4994146;28;20175;-75
2022/07/12 06:21:16;;;;;;;7.57;6.03;;;;;;;;;;4988668;28;20133;-74
2022/07/12 06:23:42;;;;;;;20.90;8.75;;;;;;;;;;4991820;28;20469;-74
2022/07/12 06:26:08;;;;;;;14.30;7.53;;;;;;;;;;5009516;28;20049;-75
2022/07/12 06:28:35;;;;;;;8.82;6.60;;;;;;;;;;4994291;28;20045;-74
2022/07/12 06:31:01;;;;;;;8.77;5.75;;;;;;;;;;4998678;28;20046;-74
2022/07/12 06:33:27;;;;;;;9.85;6.90;;;;;;;;;;5016105;28;20042;-74
2022/07/12 06:35:53;;;;;;;9.75;6.78;;;;;;;;;;5014972;28;20104;-75
2022/07/12 06:38:19;;;;;;;8.45;6.15;;;;;;;;;;4985657;28;20057;-74
2022/07/12 06:40:45;;;;;;;8.65;5.00;;;;;;;;;;5016484;28;20092;-74
2022/07/12 06:43:12;;;;;;;10.25;6.45;;;;;;;;;;4999986;28;20092;-74
2022/07/12 06:45:39;;;;;;;8.30;5.68;;;;;;;;;;5017667;28;20062;-74
2022/07/12 06:48:06;;;;;;;10.05;6.03;;;;;;;;;;5015751;28;20061;-74
2022/07/12 06:50:32;;;;;;;6.18;5.30;;;;;;;;;;5013521;28;20503;-74
2022/07/12 06:52:58;;;;;;;8.80;6.15;;;;;;;;;;5017592;28;20048;-76
2022/07/12 06:55:24;;;;;;;13.98;6.78;;;;;;;;;;5019292;28;20083;-75
2022/07/12 06:57:50;;;;;;;6.88;5.15;;;;;;;;;;5000181;28;20042;-72
2022/07/12 07:00:16;;;;;;;8.90;5.60;;;;;;;;;;5014359;28;20060;-74
2022/07/12 07:02:42;;;;;;;7.93;5.10;;;;;;;;;;5018550;28;20045;-73
2022/07/12 07:05:08;;;;;;;9.63;5.90;;;;;;;;;;5015188;28;20041;-74
2022/07/12 07:07:34;;;;;;;4.35;3.78;;;;;;;;;;5011572;28;20493;-80
2022/07/12 07:10:00;;;;;;;4.70;4.18;;;;;;;;;;5012762;28;20046;-73
2022/07/12 07:12:26;;;;;;;4.60;4.10;;;;;;;;;;5014348;28;20409;-76
2022/07/12 07:14:52;;;;;;;4.32;3.90;;;;;;;;;;5019196;28;20034;-78
2022/07/12 07:17:19;;;;;;;5.20;4.00;;;;;;;;;;5003364;28;20057;-75
2022/07/12 07:19:45;;;;;;;4.78;4.18;;;;;;;;;;5020051;28;20073;-80
2022/07/12 07:22:14;;;;;;;4.40;4.00;;;;;;;;;;5024544;28;20076;-84
2022/07/12 07:24:41;;;;;;;4.78;3.58;;;;;;;;;;5019796;28;20045;-74
2022/07/12 07:27:08;;;;;;;6.72;3.63;;;;;;;;;;5016582;28;20135;-79
2022/07/12 07:32:29;;;;;;;6.10;3.83;;;;;;;;;;4966042;28;20144;-73
2022/07/12 07:34:55;;;;;;;4.38;3.50;;;;;;;;;;4964337;29;20055;-73
2022/07/12 07:37:23;;;;;;;4.85;4.00;;;;;;;;;;4961790;29;20167;-73
2022/07/12 07:39:49;;;;;;;5.32;4.07;;;;;;;;;;4960679;29;20055;-73
2022/07/12 07:42:15;;;;;;;6.18;4.60;;;;;;;;;;4971734;28;20046;-73
2022/07/12 07:44:41;;;;;;;4.55;3.95;;;;;;;;;;4965288;29;20102;-73
2022/07/12 07:47:07;;;;;;;4.90;3.80;;;;;;;;;;4935490;29;20059;-73
2022/07/12 07:49:33;;;;;;;6.72;4.60;;;;;;;;;;4965659;29;20056;-73
2022/07/12 07:51:59;;;;;;;5.25;4.03;;;;;;;;;;4963212;28;20055;-74
2022/07/12 07:54:25;;;;;;;4.18;3.72;;;;;;;;;;4969310;28;20043;-73
2022/07/12 07:56:51;;;;;;;4.10;3.53;;;;;;;;;;4969677;29;20055;-79
2022/07/12 07:59:18;;;;;;;4.13;3.65;;;;;;;;;;4976213;28;20038;-80
2022/07/12 08:01:52;;;;;;;4.18;3.60;;;;;;;;;;4991091;28;20043;-76
2022/07/12 08:04:18;;;;;;;3.97;3.58;;;;;;;;;;4971684;29;20115;-72
2022/07/12 08:06:44;;;;;;;4.20;3.80;;;;;;;;;;4967008;28;20126;-71
2022/07/12 08:09:10;;;;;;;4.75;3.92;;;;;;;;;;5000840;28;20109;-70
2022/07/12 08:11:37;;;;;;;4.22;3.83;;;;;;;;;;5023361;28;20065;-71
2022/07/12 08:14:03;;;;;;;5.07;3.50;;;;;;;;;;5024914;28;20497;-73
2022/07/12 08:16:30;;;;;;;3.92;3.53;;;;;;;;;;4992915;28;20046;-72
2022/07/12 08:18:56;;;;;;;5.47;4.50;;;;;;;;;;5022521;28;20505;-71
2022/07/12 08:21:22;;;;;;;5.07;4.07;;;;;;;;;;5025666;28;20053;-71
2022/07/12 08:23:49;;;;;;;5.13;4.43;;;;;;;;;;5022490;28;20049;-72
2022/07/12 08:26:15;;;;;;;6.75;5.07;;;;;;;;;;5006873;28;20046;-72
2022/07/12 08:28:41;;;;;;;4.90;4.45;;;;;;;;;;5023445;28;20046;-73
2022/07/12 08:31:07;;;;;;;4.53;4.07;;;;;;;;;;5002491;28;20056;-72
2022/07/12 08:33:33;;;;;;;4.40;4.00;;;;;;;;;;5002787;28;20042;-71
2022/07/12 08:35:59;;;;;;;4.50;4.10;;;;;;;;;;5001793;28;20430;-79
2022/07/12 08:38:25;;;;;;;4.90;4.40;;;;;;;;;;4994720;28;20025;-73
2022/07/12 08:40:52;;;;;;;5.78;5.28;;;;;;;;;;5013918;28;20052;-78
2022/07/12 08:43:18;;;;;;;5.85;5.10;;;;;;;;;;5014090;28;20089;-76
2022/07/12 08:45:44;;;;;;;6.40;5.60;;;;;;;;;;5020047;28;20050;-79
2022/07/12 08:48:10;;;;;;;4.80;4.32;;;;;;;;;;5023879;28;20054;-75
2022/07/12 08:50:36;;;;;;;5.07;4.57;;;;;;;;;;5031521;28;20046;-75
2022/07/12 08:53:02;;;;;;;5.28;4.72;;;;;;;;;;5029425;28;20045;-75
2022/07/12 08:55:35;;;;;;;5.65;5.03;;;;;;;;;;5012045;28;20062;-75
2022/07/12 08:58:03;;;;;;;7.50;5.75;;;;;;;;;;5029232;28;20030;-75
2022/07/12 09:00:30;;;;;;;6.13;5.53;;;;;;;;;;5032219;28;20045;-74
2022/07/12 09:02:57;;;;;;;6.30;5.70;;;;;;;;;;5014357;28;20049;-75
2022/07/12 09:05:27;;;;;;;6.78;5.32;;;;;;;;;;5029453;28;20034;-75
2022/07/12 09:08:02;;;;;;;6.43;5.65;;;;;;;;;;5031238;28;20042;-75
2022/07/12 09:10:28;;;;;;;6.20;5.47;;;;;;;;;;5035865;28;20105;-74
2022/07/12 09:12:54;;;;;;;6.10;5.50;;;;;;;;;;5033086;28;20022;-78
2022/07/12 09:15:21;;;;;;;8.63;5.32;;;;;;;;;;5033441;28;20038;-77
2022/07/12 09:17:56;;;;;;;5.55;4.95;;;;;;;;;;5031648;28;20033;-77
2022/07/12 09:20:24;;;;;;;6.80;6.07;;;;;;;;;;5022510;28;20102;-78
2022/07/12 09:22:55;;;;;;;7.20;5.70;;;;;;;;;;5011169;28;20050;-79
2022/07/12 09:25:21;;;;;;;6.47;5.50;;;;;;;;;;5031579;28;20076;-74
2022/07/12 09:27:57;;;;;;;7.32;5.90;;;;;;;;;;5033597;28;20037;-74
2022/07/12 09:30:27;;;;;;;7.28;6.07;;;;;;;;;;5031258;28;20050;-75
2022/07/12 09:38:25;;;;;;;8.05;7.25;;;;;;;;;;4991430;28;20045;-75
2022/07/12 09:40:51;;;;;;;8.80;7.57;;;;;;;;;;5014620;28;20053;-74
2022/07/12 09:43:18;;;;;;;7.70;6.57;;;;;;;;;;5014564;28;20393;-75
2022/07/12 09:45:44;;;;;;;7.95;7.20;;;;;;;;;;5014707;28;20130;-75
2022/07/12 09:48:13;;;;;;;9.23;7.57;;;;;;;;;;5013874;28;20104;-75
2022/07/12 09:50:39;;;;;;;8.32;7.53;;;;;;;;;;5014070;28;20213;-75
2022/07/12 09:53:09;;;;;;;8.85;7.95;;;;;;;;;;4996523;28;20126;-74
2022/07/12 09:55:38;;;;;;;9.00;8.10;;;;;;;;;;4996899;28;20108;-75
2022/07/12 09:58:05;;;;;;;8.80;8.00;;;;;;;;;;5013847;28;20054;-75
2022/07/12 10:00:31;;;;;;;8.52;7.72;;;;;;;;;;5013720;28;20058;-75
2022/07/12 10:02:58;;;;;;;8.07;7.30;;;;;;;;;;5014003;28;20058;-75
2022/07/12 10:05:25;;;;;;;10.23;8.50;;;;;;;;;;5014047;28;20076;-75
2022/07/12 10:07:51;;;;;;;8.52;7.72;;;;;;;;;;4996648;28;20579;-75
2022/07/12 10:10:18;;;;;;;8.15;7.45;;;;;;;;;;5013499;28;20048;-75
2022/07/12 10:12:44;;;;;;;8.48;7.68;;;;;;;;;;5013695;28;20559;-75
2022/07/12 10:15:20;;;;;;;8.60;7.55;;;;;;;;;;5013966;28;20046;-75
2022/07/12 10:17:53;;;;;;;8.70;7.38;;;;;;;;;;5013764;28;20049;-74
2022/07/12 10:20:24;;;;;;;8.38;7.22;;;;;;;;;;5013790;28;20441;-75
2022/07/12 10:22:52;;;;;;;7.68;6.93;;;;;;;;;;5013684;28;20085;-74
2022/07/12 10:25:31;;;;;;;7.32;6.63;;;;;;;;;;5013659;28;20060;-75
2022/07/12 10:28:00;;;;;;;8.00;7.20;;;;;;;;;;5013569;28;20050;-75
2022/07/12 10:30:27;;;;;;;8.27;7.47;;;;;;;;;;4995941;28;20092;-75
2022/07/12 10:32:57;;;;;;;8.65;7.75;;;;;;;;;;4995896;28;20050;-75
2022/07/12 10:35:24;;;;;;;7.43;6.72;;;;;;;;;;4995830;28;20061;-75
2022/07/12 10:38:08;;;;;;;8.18;7.38;;;;;;;;;;5013300;28;20043;-74
2022/07/12 10:40:35;;;;;;;7.10;6.35;;;;;;;;;;5013579;28;20049;-75
2022/07/12 10:43:02;;;;;;;7.65;6.60;;;;;;;;;;5013577;28;20052;-75
2022/07/12 10:45:32;;;;;;;6.07;5.38;;;;;;;;;;4995714;28;20062;-74
2022/07/12 10:48:08;;;;;;;7.88;5.72;;;;;;;;;;5013399;28;20046;-75
2022/07/12 10:50:45;;;;;;;6.30;4.82;;;;;;;;;;5013277;28;20053;-74
2022/07/12 10:53:29;;;;;;;6.57;5.60;;;;;;;;;;5013453;28;20050;-74
2022/07/12 10:56:04;;;;;;;6.05;5.45;;;;;;;;;;5013348;28;20070;-75
2022/07/12 10:58:31;;;;;;;6.50;5.53;;;;;;;;;;4995808;28;20149;-75
2022/07/12 11:00:57;;;;;;;6.45;5.53;;;;;;;;;;5015763;28;20050;-74
2022/07/12 11:03:23;;;;;;;6.43;4.90;;;;;;;;;;5017192;28;20504;-75
2022/07/12 11:05:49;;;;;;;7.38;5.82;;;;;;;;;;5017300;28;20128;-74
2022/07/12 11:08:18;;;;;;;7.78;6.75;;;;;;;;;;5017431;28;20042;-75
2022/07/12 11:10:57;;;;;;;6.43;5.50;;;;;;;;;;5017440;28;20140;-75
2022/07/12 11:13:24;;;;;;;7.25;5.10;;;;;;;;;;4999656;28;20500;-75
2022/07/12 11:15:57;;;;;;;6.32;5.28;;;;;;;;;;5017072;28;20489;-75
2022/07/12 11:18:33;;;;;;;5.53;5.03;;;;;;;;;;5017235;28;20556;-75
2022/07/12 11:21:00;;;;;;;5.90;4.88;;;;;;;;;;5016885;28;20155;-75
2022/07/12 11:23:26;;;;;;;7.50;6.25;;;;;;;;;;5016886;28;20096;-75
2022/07/12 11:25:56;;;;;;;6.80;5.45;;;;;;;;;;5016935;28;20038;-75
2022/07/12 11:28:24;;;;;;;6.63;5.32;;;;;;;;;;5017075;28;20044;-75
2022/07/12 11:30:53;;;;;;;6.03;4.88;;;;;;;;;;5017086;28;20046;-75
2022/07/12 11:33:25;;;;;;;7.22;6.50;;;;;;;;;;5017160;28;20096;-75
2022/07/12 11:35:51;;;;;;;6.03;5.13;;;;;;;;;;5016922;28;20045;-75
2022/07/12 11:38:25;;;;;;;7.57;6.38;;;;;;;;;;5016629;28;20408;-74
2022/07/12 11:41:00;;;;;;;7.90;6.22;;;;;;;;;;4999060;28;20050;-75
2022/07/12 11:43:27;;;;;;;5.65;5.03;;;;;;;;;;5016846;28;20143;-75
2022/07/12 11:45:53;;;;;;;7.15;5.78;;;;;;;;;;5016083;28;20406;-74
2022/07/12 11:48:20;;;;;;;5.90;5.30;;;;;;;;;;5016483;28;20421;-75
2022/07/12 11:50:47;;;;;;;6.63;6.03;;;;;;;;;;5016429;28;20041;-75
2022/07/12 11:53:19;;;;;;;6.45;5.85;;;;;;;;;;5016207;28;20100;-75
2022/07/12 11:55:46;;;;;;;6.68;4.90;;;;;;;;;;5016681;28;20085;-75
2022/07/12 11:58:13;;;;;;;7.55;5.40;;;;;;;;;;4999197;28;20050;-75
2022/07/12 12:00:39;;;;;;;7.35;6.65;;;;;;;;;;5016516;28;20050;-75
2022/07/12 12:03:05;;;;;;;6.18;5.55;;;;;;;;;;5016389;28;20038;-75
2022/07/12 12:05:31;;;;;;;6.97;5.82;;;;;;;;;;4998890;28;20128;-74
2022/07/12 12:07:57;;;;;;;5.05;4.53;;;;;;;;;;5016570;28;20198;-75
2022/07/12 12:10:23;;;;;;;6.18;4.28;;;;;;;;;;5015971;28;20081;-74
2022/07/12 12:12:53;;;;;;;5.00;4.50;;;;;;;;;;5015419;28;20089;-75
2022/07/12 12:15:19;;;;;;;6.75;5.03;;;;;;;;;;4998649;28;20071;-75
2022/07/12 12:17:51;;;;;;;5.05;4.53;;;;;;;;;;5016045;28;20468;-74
2022/07/12 12:20:18;;;;;;;4.50;4.05;;;;;;;;;;5015808;28;20405;-75
2022/07/12 12:22:46;;;;;;;4.35;3.83;;;;;;;;;;5016276;28;20041;-74
2022/07/12 12:25:15;;;;;;;5.90;4.15;;;;;;;;;;5016087;28;20173;-75
2022/07/12 12:27:45;;;;;;;5.43;4.63;;;;;;;;;;5016229;28;20125;-76
2022/07/12 12:30:12;;;;;;;4.25;3.60;;;;;;;;;;5015862;28;20049;-75
2022/07/12 12:32:52;;;;;;;4.57;4.07;;;;;;;;;;5015686;28;20046;-75
2022/07/12 12:35:19;;;;;;;5.20;3.30;;;;;;;;;;5015983;28;20481;-75
2022/07/12 12:37:52;;;;;;;3.92;3.53;;;;;;;;;;5015880;28;20042;-75
2022/07/12 12:40:18;;;;;;;4.90;3.80;;;;;;;;;;5015774;28;20041;-74
2022/07/12 12:42:45;;;;;;;5.70;3.60;;;;;;;;;;5015708;28;20074;-75
2022/07/12 12:45:18;;;;;;;4.63;3.45;;;;;;;;;;5015147;28;20516;-75
2022/07/12 12:47:59;;;;;;;4.22;3.75;;;;;;;;;;5015971;28;20096;-75
2022/07/12 12:50:42;;;;;;;4.07;3.67;;;;;;;;;;4998184;28;20117;-75
2022/07/12 12:53:13;;;;;;;5.18;4.10;;;;;;;;;;5015475;28;20117;-75
2022/07/12 12:55:39;;;;;;;4.72;3.58;;;;;;;;;;5015104;28;20408;-75
2022/07/12 12:58:05;;;;;;;3.58;3.08;;;;;;;;;;4998003;28;20500;-75
2022/07/12 13:00:32;;;;;;;4.28;3.03;;;;;;;;;;5015614;28;20046;-75
2022/07/12 13:02:59;;;;;;;3.97;3.00;;;;;;;;;;5015625;28;20042;-75
2022/07/12 13:05:28;;;;;;;3.40;3.10;;;;;;;;;;5015309;28;20111;-74
2022/07/12 13:07:57;;;;;;;6.55;3.67;;;;;;;;;;5015301;28;20092;-75
2022/07/12 13:10:23;;;;;;;4.55;3.53;;;;;;;;;;4981416;28;20093;-75
2022/07/12 13:12:50;;;;;;;4.47;3.40;;;;;;;;;;4997781;28;20042;-74
2022/07/12 13:15:16;;;;;;;3.83;3.15;;;;;;;;;;5015107;28;20410;-74
2022/07/12 13:17:42;;;;;;;4.07;3.13;;;;;;;;;;5015447;28;20501;-74
2022/07/12 13:20:09;;;;;;;3.67;3.00;;;;;;;;;;5015251;28;20161;-75
2022/07/12 13:22:35;;;;;;;4.50;3.45;;;;;;;;;;5014980;28;20081;-74
2022/07/12 13:25:01;;;;;;;6.75;3.20;;;;;;;;;;5014483;28;20057;-75
2022/07/12 13:27:28;;;;;;;3.80;2.78;;;;;;;;;;5015301;28;20046;-75
2022/07/12 13:29:54;;;;;;;3.35;2.70;;;;;;;;;;5015107;28;20046;-75
2022/07/12 13:32:20;;;;;;;3.60;3.30;;;;;;;;;;4997344;28;20070;-75
2022/07/12 13:34:49;;;;;;;2.72;2.45;;;;;;;;;;4997370;28;20081;-75
2022/07/12 13:37:15;;;;;;;3.38;2.90;;;;;;;;;;5014731;28;20512;-75
2022/07/12 13:42:29;;;;;;;3.50;3.20;;;;;;;;;;5014515;28;20569;-75
2022/07/12 13:44:55;;;;;;;4.22;3.40;;;;;;;;;;5014540;28;20129;-75
2022/07/12 13:47:21;;;;;;;3.50;3.15;;;;;;;;;;5014218;28;20093;-74
2022/07/12 13:49:48;;;;;;;5.57;3.50;;;;;;;;;;5014797;28;20056;-75
2022/07/12 13:52:15;;;;;;;6.07;4.43;;;;;;;;;;5014738;28;20100;-74
2022/07/12 13:54:43;;;;;;;5.78;4.90;;;;;;;;;;5014795;28;20050;-75
2022/07/12 13:57:09;;;;;;;5.85;5.13;;;;;;;;;;5014420;28;20058;-74
2022/07/12 13:59:35;;;;;;;5.80;5.20;;;;;;;;;;5014413;28;20088;-75
2022/07/12 14:02:01;;;;;;;6.07;5.30;;;;;;;;;;5014169;28;20046;-75
2022/07/12 14:04:27;;;;;;;9.63;5.32;;;;;;;;;;5014542;28;20551;-74
2022/07/12 14:06:53;;;;;;;7.13;5.78;;;;;;;;;;5014516;28;20038;-74
2022/07/12 14:09:19;;;;;;;6.45;5.57;;;;;;;;;;4996617;28;20050;-74
2022/07/12 14:11:45;;;;;;;8.18;5.80;;;;;;;;;;5014080;28;20046;-75
2022/07/12 14:14:12;;;;;;;7.47;6.78;;;;;;;;;;5014376;28;20045;-75
2022/07/12 14:16:38;;;;;;;7.10;6.40;;;;;;;;;;5014104;28;20048;-75
2022/07/12 14:19:04;;;;;;;10.55;7.75;;;;;;;;;;4996598;28;20052;-74
2022/07/12 14:21:30;;;;;;;8.63;7.72;;;;;;;;;;5014181;28;20057;-75
2022/07/12 14:23:59;;;;;;;9.02;8.13;;;;;;;;;;5014427;28;20073;-74
2022/07/12 14:26:25;;;;;;;8.95;7.55;;;;;;;;;;5013955;28;20068;-75
2022/07/12 14:28:51;;;;;;;7.97;6.78;;;;;;;;;;5013874;28;20049;-75
2022/07/12 14:31:17;;;;;;;11.13;8.45;;;;;;;;;;5013715;28;20509;-75
2022/07/12 14:33:43;;;;;;;9.60;8.02;;;;;;;;;;5013817;28;20057;-75
2022/07/12 14:36:09;;;;;;;10.13;7.50;;;;;;;;;;4995914;28;20084;-75
2022/07/12 14:38:35;;;;;;;10.20;8.18;;;;;;;;;;5013875;28;20077;-75
2022/07/12 14:41:04;;;;;;;10.90;9.15;;;;;;;;;;5014383;28;20045;-75
2022/07/12 14:43:30;;;;;;;11.45;10.25;;;;;;;;;;5013871;28;20046;-75
2022/07/12 14:45:56;;;;;;;12.95;9.70;;;;;;;;;;5013428;28;20061;-74
2022/07/12 14:48:22;;;;;;;9.95;8.95;;;;;;;;;;5013803;28;20050;-75
2022/07/12 14:50:48;;;;;;;10.55;8.93;;;;;;;;;;5013981;28;20177;-75
2022/07/12 14:53:14;;;;;;;10.65;9.55;;;;;;;;;;5014175;28;20108;-75